createdAt,value
2019-02-24T00:01:55.657Z,66.30
2019-02-24T00:04:28.052Z,68.00
2019-02-24T00:07:00.510Z,67.70
2019-02-24T00:09:33.135Z,66.80
2019-02-24T00:12:05.473Z,66.20
2019-02-24T00:14:37.986Z,66.00
2019-02-24T00:17:10.499Z,65.70
2019-02-24T00:19:42.871Z,65.60
2019-02-24T00:22:15.608Z,65.60
2019-02-24T00:24:48.033Z,66.30
2019-02-24T00:27:20.648Z,66.90
2019-02-24T00:29:52.973Z,67.10
2019-02-24T00:32:25.363Z,66.70
2019-02-24T00:34:57.762Z,66.30
2019-02-24T00:37:30.151Z,66.40
2019-02-24T00:40:02.500Z,66.50
2019-02-24T00:42:35.350Z,66.80
2019-02-24T00:45:10.272Z,67.40
2019-02-24T00:47:42.903Z,67.60
2019-02-24T00:50:15.558Z,67.80
2019-02-24T00:52:48.448Z,67.70
2019-02-24T00:55:21.203Z,67.90
2019-02-24T00:57:53.825Z,68.30
2019-02-24T01:00:26.300Z,68.70
2019-02-24T01:02:58.781Z,69.00
2019-02-24T01:05:31.539Z,69.10
2019-02-24T01:08:03.957Z,69.10
2019-02-24T01:10:36.346Z,69.60
2019-02-24T01:13:09.169Z,70.40
2019-02-24T01:15:41.706Z,70.30
2019-02-24T01:18:14.150Z,69.60
2019-02-24T01:20:46.572Z,70.00
2019-02-24T01:23:19.348Z,71.20
2019-02-24T01:25:51.823Z,72.20
2019-02-24T01:28:25.512Z,72.10
2019-02-24T01:30:58.055Z,71.90
2019-02-24T01:33:30.475Z,71.50
2019-02-24T01:36:02.873Z,70.90
2019-02-24T01:38:35.896Z,71.50
2019-02-24T01:41:08.409Z,72.10
2019-02-24T01:43:41.009Z,71.60
2019-02-24T01:46:13.465Z,71.50
2019-02-24T01:48:46.167Z,71.20
2019-02-24T01:51:18.689Z,70.90
2019-02-24T01:53:51.202Z,71.10
2019-02-24T01:56:23.952Z,71.60
2019-02-24T01:58:56.388Z,72.10
2019-02-24T02:01:28.940Z,72.40
2019-02-24T02:04:01.342Z,73.30
2019-02-24T02:06:34.232Z,73.10
2019-02-24T02:09:07.963Z,73.00
2019-02-24T02:11:40.503Z,73.00
2019-02-24T02:14:12.972Z,72.80
2019-02-24T02:16:45.857Z,72.70
2019-02-24T02:19:18.880Z,73.10
2019-02-24T02:21:51.423Z,73.10
2019-02-24T02:24:25.007Z,73.60
2019-02-24T02:27:01.245Z,74.20
2019-02-24T02:29:32.751Z,74.60
2019-02-24T02:32:05.633Z,75.40
2019-02-24T02:34:38.324Z,75.40
2019-02-24T02:37:10.674Z,75.90
2019-02-24T02:39:47.674Z,76.20
2019-02-24T02:42:20.023Z,76.00
2019-02-24T02:44:52.581Z,75.70
2019-02-24T02:47:25.450Z,75.90
2019-02-24T02:49:57.952Z,75.80
2019-02-24T02:52:30.373Z,76.40
2019-02-24T02:55:02.740Z,76.30
2019-02-24T02:57:35.342Z,75.90
2019-02-24T03:00:19.530Z,76.30
2019-02-24T03:02:52.124Z,76.10
2019-02-24T03:05:24.620Z,75.90
2019-02-24T03:08:08.745Z,75.90
2019-02-24T03:10:41.227Z,75.70
2019-02-24T03:13:13.826Z,76.00
2019-02-24T03:15:46.262Z,75.80
2019-02-24T03:18:18.593Z,75.40
2019-02-24T03:20:51.311Z,75.10
2019-02-24T03:23:23.659Z,74.90
2019-02-24T03:25:56.106Z,74.80
2019-02-24T03:28:28.595Z,74.50
2019-02-24T03:31:00.948Z,74.30
2019-02-24T03:33:33.395Z,74.50
2019-02-24T03:36:05.784Z,75.80
2019-02-24T03:38:38.397Z,76.80
2019-02-24T03:41:10.826Z,77.50
2019-02-24T03:43:43.168Z,77.60
2019-02-24T03:46:15.851Z,75.80
2019-02-24T03:48:48.700Z,74.50
2019-02-24T03:51:21.389Z,74.20
2019-02-24T03:53:54.695Z,74.00
2019-02-24T03:56:27.819Z,73.80
2019-02-24T03:59:00.282Z,73.40
2019-02-24T04:01:32.656Z,73.40
2019-02-24T04:04:05.159Z,73.60
2019-02-24T04:06:37.697Z,73.20
2019-02-24T04:09:11.775Z,73.10
2019-02-24T04:11:44.310Z,73.50
2019-02-24T04:14:16.758Z,74.60
2019-02-24T04:16:49.506Z,75.40
2019-02-24T04:19:21.928Z,76.60
2019-02-24T04:21:54.296Z,77.10
2019-02-24T04:24:26.790Z,77.40
2019-02-24T04:26:59.212Z,77.20
2019-02-24T04:29:31.645Z,77.60
2019-02-24T04:32:07.157Z,77.40
2019-02-24T04:34:39.559Z,78.00
2019-02-24T04:37:11.999Z,78.30
2019-02-24T04:39:44.623Z,78.60
2019-02-24T04:42:17.162Z,78.60
2019-02-24T04:44:49.883Z,78.30
2019-02-24T04:47:22.250Z,77.80
2019-02-24T04:49:54.545Z,78.00
2019-02-24T04:52:27.032Z,78.00
2019-02-24T04:54:59.494Z,78.80
2019-02-24T04:57:31.831Z,79.10
2019-02-24T05:00:05.739Z,79.00
2019-02-24T05:02:38.088Z,79.10
2019-02-24T05:05:10.589Z,79.70
2019-02-24T05:07:43.315Z,79.80
2019-02-24T05:10:16.031Z,79.50
2019-02-24T05:12:48.580Z,79.60
2019-02-24T05:15:21.009Z,79.80
2019-02-24T05:17:53.610Z,80.00
2019-02-24T05:20:25.920Z,79.70
2019-02-24T05:23:00.046Z,79.10
2019-02-24T05:25:32.433Z,79.30
2019-02-24T05:28:04.843Z,78.60
2019-02-24T05:30:37.348Z,78.10
2019-02-24T05:33:09.801Z,78.20
2019-02-24T05:35:42.129Z,79.10
2019-02-24T05:38:14.536Z,81.50
2019-02-24T05:40:47.125Z,83.00
2019-02-24T05:43:19.515Z,84.10
2019-02-24T05:45:52.056Z,84.20
2019-02-24T05:48:24.401Z,82.70
2019-02-24T05:50:56.735Z,81.40
2019-02-24T05:53:29.510Z,79.60
2019-02-24T05:56:02.274Z,79.40
2019-02-24T05:58:34.839Z,79.60
2019-02-24T06:01:07.101Z,79.40
2019-02-24T06:03:39.486Z,79.20
2019-02-24T06:06:12.006Z,78.60
2019-02-24T06:08:44.551Z,79.90
2019-02-24T06:11:17.106Z,79.40
2019-02-24T06:13:49.402Z,79.50
2019-02-24T06:16:21.869Z,79.30
2019-02-24T06:18:54.343Z,79.70
2019-02-24T06:21:26.770Z,79.40
2019-02-24T06:23:59.338Z,79.20
2019-02-24T06:26:32.157Z,77.70
2019-02-24T06:29:04.941Z,75.60
2019-02-24T06:31:37.678Z,74.90
2019-02-24T06:34:10.304Z,74.30
2019-02-24T06:36:42.825Z,74.10
2019-02-24T06:39:15.401Z,73.80
2019-02-24T06:41:47.981Z,73.50
2019-02-24T06:44:20.549Z,73.30
2019-02-24T06:46:52.974Z,73.10
2019-02-24T06:49:25.698Z,72.30
2019-02-24T06:51:58.063Z,75.10
2019-02-24T06:54:30.585Z,75.20
2019-02-24T06:57:03.120Z,75.20
2019-02-24T06:59:35.732Z,75.60
2019-02-24T07:02:08.131Z,76.40
2019-02-24T07:04:40.648Z,73.10
2019-02-24T07:07:12.907Z,74.00
2019-02-24T07:09:45.495Z,72.60
2019-02-24T07:12:18.094Z,70.70
2019-02-24T07:14:50.559Z,70.00
2019-02-24T07:17:23.060Z,68.80
2019-02-24T07:19:58.801Z,68.50
2019-02-24T07:22:31.354Z,67.70
2019-02-24T07:25:03.837Z,66.80
2019-02-24T07:27:36.312Z,66.90
2019-02-24T07:30:09.404Z,66.80
2019-02-24T07:32:41.893Z,67.50
2019-02-24T07:35:14.384Z,70.60
2019-02-24T07:37:46.842Z,70.50
2019-02-24T07:40:19.348Z,69.50
2019-02-24T07:42:51.683Z,68.50
2019-02-24T07:45:24.448Z,69.10
2019-02-24T07:47:56.913Z,66.70
2019-02-24T07:50:29.714Z,74.40
2019-02-24T07:53:02.204Z,69.30
2019-02-24T07:55:34.691Z,71.60
2019-02-24T07:58:07.122Z,67.10
2019-02-24T08:00:39.704Z,65.60
2019-02-24T08:03:12.362Z,64.90
2019-02-24T08:05:44.946Z,64.40
2019-02-24T08:08:17.378Z,63.80
2019-02-24T08:10:49.808Z,63.30
2019-02-24T08:13:22.457Z,65.20
2019-02-24T08:15:55.157Z,72.40
2019-02-24T08:18:27.742Z,66.30
2019-02-24T08:21:00.412Z,63.60
2019-02-24T08:23:33.020Z,62.30
2019-02-24T08:26:05.694Z,61.60
2019-02-24T08:28:38.181Z,61.10
2019-02-24T08:31:10.653Z,61.00
2019-02-24T08:33:43.389Z,61.20
2019-02-24T08:36:15.744Z,60.30
2019-02-24T08:38:48.350Z,59.80
2019-02-24T08:41:20.738Z,59.30
2019-02-24T08:43:53.303Z,59.60
2019-02-24T08:46:25.707Z,58.80
2019-02-24T08:48:58.190Z,58.40
2019-02-24T08:51:30.691Z,57.50
2019-02-24T08:54:03.027Z,57.30
2019-02-24T08:56:35.828Z,57.40
2019-02-24T08:59:08.461Z,57.70
2019-02-24T09:01:40.798Z,58.10
2019-02-24T09:04:13.389Z,58.10
2019-02-24T09:06:46.053Z,57.80
2019-02-24T09:09:18.614Z,57.90
2019-02-24T09:11:51.748Z,58.30
2019-02-24T09:14:24.237Z,63.70
2019-02-24T09:16:56.802Z,58.00
2019-02-24T09:19:29.217Z,56.50
2019-02-24T09:22:01.859Z,56.60
2019-02-24T09:24:34.240Z,57.20
2019-02-24T09:27:07.118Z,57.00
2019-02-24T09:29:39.703Z,56.70
2019-02-24T09:32:12.346Z,56.80
2019-02-24T09:34:44.716Z,57.00
2019-02-24T09:37:17.125Z,57.00
2019-02-24T09:39:49.585Z,57.60
2019-02-24T09:42:22.089Z,57.00
2019-02-24T09:44:54.636Z,57.10
2019-02-24T09:47:27.198Z,55.90
2019-02-24T09:49:59.603Z,56.10
2019-02-24T09:52:32.325Z,55.80
2019-02-24T09:55:05.137Z,56.00
2019-02-24T09:57:37.960Z,55.90
2019-02-24T10:00:11.519Z,55.50
2019-02-24T10:02:44.300Z,61.80
2019-02-24T10:05:16.861Z,84.60
2019-02-24T10:07:49.398Z,60.50
2019-02-24T10:10:21.744Z,56.70
2019-02-24T10:12:54.596Z,54.90
2019-02-24T10:15:26.966Z,54.00
2019-02-24T10:17:59.498Z,53.20
2019-02-24T10:20:32.010Z,51.30
2019-02-24T10:23:04.757Z,49.40
2019-02-24T10:25:37.222Z,48.80
2019-02-24T10:28:09.975Z,48.20
2019-02-24T10:30:42.473Z,48.80
2019-02-24T10:33:14.982Z,48.80
2019-02-24T10:35:47.341Z,49.50
2019-02-24T10:38:19.914Z,49.10
2019-02-24T10:40:52.379Z,49.00
2019-02-24T10:43:27.082Z,49.30
2019-02-24T10:46:00.486Z,49.60
2019-02-24T10:48:33.114Z,49.50
2019-02-24T10:51:05.609Z,49.60
2019-02-24T10:53:38.453Z,49.80
2019-02-24T10:56:10.830Z,49.90
2019-02-24T10:58:43.335Z,53.70
2019-02-24T11:01:15.838Z,56.70
2019-02-24T11:03:48.328Z,51.10
2019-02-24T11:06:21.069Z,49.80
2019-02-24T11:08:54.057Z,49.70
2019-02-24T11:11:26.678Z,49.40
2019-02-24T11:13:59.781Z,49.50
2019-02-24T11:16:32.635Z,50.70
2019-02-24T11:19:05.452Z,48.90
2019-02-24T11:21:38.178Z,48.70
2019-02-24T11:24:11.076Z,48.30
2019-02-24T11:26:43.640Z,48.40
2019-02-24T11:29:16.160Z,48.20
2019-02-24T11:31:48.741Z,47.80
2019-02-24T11:34:21.384Z,48.30
2019-02-24T11:36:53.776Z,47.90
2019-02-24T11:39:26.235Z,47.90
2019-02-24T11:41:59.478Z,48.40
2019-02-24T11:44:32.007Z,48.40
2019-02-24T11:47:04.482Z,48.10
2019-02-24T11:49:37.232Z,48.70
2019-02-24T11:52:10.050Z,48.40
2019-02-24T11:54:42.640Z,48.00
2019-02-24T11:57:16.370Z,48.10
2019-02-24T11:59:49.826Z,48.20
2019-02-24T12:02:22.202Z,58.70
2019-02-24T12:04:54.592Z,51.70
2019-02-24T12:07:27.043Z,72.60
2019-02-24T12:09:59.487Z,69.30
2019-02-24T12:12:32.065Z,89.60
2019-02-24T12:15:04.856Z,74.80
2019-02-24T12:17:37.473Z,76.30
2019-02-24T12:20:11.752Z,71.10
2019-02-24T12:22:44.300Z,62.30
2019-02-24T12:25:16.988Z,54.60
2019-02-24T12:27:49.497Z,53.90
2019-02-24T12:30:22.083Z,57.30
2019-02-24T12:32:54.655Z,55.80
2019-02-24T12:35:27.142Z,53.80
2019-02-24T12:37:59.695Z,55.60
2019-02-24T12:40:32.114Z,52.90
2019-02-24T12:43:04.460Z,52.60
2019-02-24T12:45:37.084Z,52.00
2019-02-24T12:48:09.501Z,50.90
2019-02-24T12:50:42.054Z,50.30
2019-02-24T12:53:14.545Z,50.60
2019-02-24T12:55:46.952Z,51.40
2019-02-24T12:58:19.432Z,51.40
2019-02-24T13:00:51.889Z,51.20
2019-02-24T13:03:24.370Z,51.10
2019-02-24T13:05:56.811Z,51.30
2019-02-24T13:08:29.323Z,51.40
2019-02-24T13:11:01.792Z,51.50
2019-02-24T13:13:34.369Z,52.80
2019-02-24T13:16:07.017Z,53.40
2019-02-24T13:18:39.759Z,52.40
2019-02-24T13:21:12.524Z,51.30
2019-02-24T13:23:45.359Z,51.40
2019-02-24T13:26:18.001Z,51.30
2019-02-24T13:28:50.802Z,50.90
2019-02-24T13:31:23.492Z,51.30
2019-02-24T13:33:56.093Z,51.50
2019-02-24T13:36:28.655Z,50.60
2019-02-24T13:39:01.180Z,51.10
2019-02-24T13:41:33.732Z,50.90
2019-02-24T13:44:06.384Z,50.20
2019-02-24T13:46:38.885Z,51.00
2019-02-24T13:49:11.520Z,50.60
2019-02-24T13:51:44.047Z,51.90
2019-02-24T13:54:16.442Z,51.60
2019-02-24T13:56:49.069Z,50.60
2019-02-24T13:59:21.663Z,50.00
2019-02-24T14:01:54.220Z,51.20
2019-02-24T14:04:26.803Z,51.30
2019-02-24T14:06:59.218Z,50.90
2019-02-24T14:09:31.820Z,51.00
2019-02-24T14:12:04.359Z,51.30
2019-02-24T14:14:36.871Z,51.10
2019-02-24T14:17:09.584Z,50.90
2019-02-24T14:19:41.945Z,50.80
2019-02-24T14:22:14.471Z,51.10
2019-02-24T14:24:47.099Z,51.60
2019-02-24T14:27:19.711Z,52.20
2019-02-24T14:29:52.405Z,52.10
2019-02-24T14:32:32.850Z,52.00
2019-02-24T14:34:59.210Z,51.50
2019-02-24T14:37:31.862Z,50.70
2019-02-24T14:40:04.635Z,50.80
2019-02-24T14:42:37.536Z,51.00
2019-02-24T14:45:13.737Z,50.50
2019-02-24T14:47:46.234Z,50.30
2019-02-24T14:50:18.767Z,50.20
2019-02-24T14:52:51.215Z,50.60
2019-02-24T14:55:23.809Z,51.10
2019-02-24T14:57:56.375Z,50.70
2019-02-24T15:00:28.889Z,50.20
2019-02-24T15:03:01.566Z,50.60
2019-02-24T15:05:33.966Z,49.40
2019-02-24T15:08:06.383Z,49.20
2019-02-24T15:10:38.775Z,49.30
2019-02-24T15:13:11.247Z,50.00
2019-02-24T15:15:43.598Z,50.30
2019-02-24T15:18:16.976Z,50.90
2019-02-24T15:20:49.483Z,51.40
2019-02-24T15:23:21.901Z,51.50
2019-02-24T15:25:54.300Z,50.80
2019-02-24T15:28:26.984Z,51.20
2019-02-24T15:30:59.354Z,52.10
2019-02-24T15:33:31.921Z,50.90
2019-02-24T15:36:04.582Z,49.90
2019-02-24T15:38:37.081Z,48.90
2019-02-24T15:41:09.634Z,48.60
2019-02-24T15:43:42.231Z,48.80
2019-02-24T15:46:14.915Z,49.30
2019-02-24T15:48:47.467Z,48.90
2019-02-24T15:51:20.598Z,48.80
2019-02-24T15:53:53.310Z,49.10
2019-02-24T15:56:25.852Z,49.50
2019-02-24T15:58:58.183Z,49.30
2019-02-24T16:01:30.460Z,49.00
2019-02-24T16:04:02.946Z,49.30
2019-02-24T16:06:37.403Z,49.30
2019-02-24T16:09:10.654Z,49.90
2019-02-24T16:11:45.894Z,50.00
2019-02-24T16:14:18.251Z,50.40
2019-02-24T16:16:50.712Z,50.60
2019-02-24T16:19:23.353Z,50.90
2019-02-24T16:21:56.112Z,51.10
2019-02-24T16:24:28.592Z,51.60
2019-02-24T16:27:01.117Z,51.60
2019-02-24T16:29:33.878Z,51.90
2019-02-24T16:32:06.357Z,51.50
2019-02-24T16:34:38.842Z,51.70
2019-02-24T16:37:11.282Z,50.40
2019-02-24T16:39:43.803Z,49.60
2019-02-24T16:42:16.282Z,49.00
2019-02-24T16:44:48.775Z,48.80
2019-02-24T16:47:21.650Z,48.80
2019-02-24T16:49:54.340Z,49.10
2019-02-24T16:52:26.873Z,48.60
2019-02-24T16:54:59.354Z,48.90
2019-02-24T16:57:31.819Z,49.20
2019-02-24T17:00:05.873Z,49.40
2019-02-24T17:02:38.650Z,48.40
2019-02-24T17:05:11.458Z,48.00
2019-02-24T17:07:43.919Z,47.80
2019-02-24T17:10:18.518Z,48.60
2019-02-24T17:12:50.961Z,47.90
2019-02-24T17:15:24.346Z,46.80
2019-02-24T17:17:58.997Z,47.00
2019-02-24T17:20:31.778Z,47.80
2019-02-24T17:23:04.678Z,48.30
2019-02-24T17:25:37.523Z,48.80
2019-02-24T17:28:09.910Z,48.60
2019-02-24T17:30:42.947Z,48.60
2019-02-24T17:33:15.404Z,49.00
2019-02-24T17:35:47.925Z,49.20
2019-02-24T17:38:20.643Z,49.10
2019-02-24T17:40:53.233Z,48.40
2019-02-24T17:43:25.603Z,48.00
2019-02-24T17:45:58.352Z,49.10
2019-02-24T17:48:31.965Z,48.20
2019-02-24T17:51:04.685Z,46.90
2019-02-24T17:53:37.160Z,46.30
2019-02-24T17:56:09.684Z,45.60
2019-02-24T17:58:41.951Z,45.00
2019-02-24T18:01:33.198Z,44.40
2019-02-24T18:04:07.557Z,43.90
2019-02-24T18:06:40.384Z,44.70
2019-02-24T18:09:13.194Z,45.40
2019-02-24T18:11:45.725Z,45.00
2019-02-24T18:14:17.960Z,44.70
2019-02-24T18:16:50.685Z,45.40
2019-02-24T18:19:23.125Z,45.40
2019-02-24T18:21:56.783Z,45.10
2019-02-24T18:24:29.159Z,45.60
2019-02-24T18:27:01.540Z,52.10
2019-02-24T18:29:33.994Z,50.40
2019-02-24T18:32:06.535Z,51.50
2019-02-24T18:34:39.126Z,48.30
2019-02-24T18:37:12.617Z,48.00
2019-02-24T18:39:45.188Z,48.70
2019-02-24T18:42:17.841Z,49.20
2019-02-24T18:44:50.864Z,49.70
2019-02-24T18:47:24.100Z,50.40
2019-02-24T18:49:56.598Z,51.10
2019-02-24T18:52:29.492Z,51.60
2019-02-24T18:55:02.506Z,52.30
2019-02-24T18:57:35.060Z,53.00
2019-02-24T19:00:10.772Z,53.20
2019-02-24T19:02:43.196Z,53.10
2019-02-24T19:05:16.264Z,52.90
2019-02-24T19:07:48.913Z,53.70
2019-02-24T19:10:21.677Z,53.20
2019-02-24T19:12:54.103Z,52.80
2019-02-24T19:15:26.814Z,52.60
2019-02-24T19:17:59.817Z,52.70
2019-02-24T19:20:32.388Z,52.70
2019-02-24T19:23:04.978Z,52.70
2019-02-24T19:25:37.561Z,53.30
2019-02-24T19:28:09.986Z,53.60
2019-02-24T19:30:43.489Z,53.70
2019-02-24T19:33:16.819Z,53.70
2019-02-24T19:35:49.235Z,53.70
2019-02-24T19:38:21.615Z,53.90
2019-02-24T19:40:54.214Z,53.90
2019-02-24T19:43:26.644Z,53.90
2019-02-24T19:45:59.160Z,54.50
2019-02-24T19:48:31.778Z,55.10
2019-02-24T19:51:04.077Z,55.30
2019-02-24T19:53:36.870Z,55.40
2019-02-24T19:56:09.461Z,55.20
2019-02-24T19:58:42.215Z,57.80
2019-02-24T20:01:14.869Z,60.30
2019-02-24T20:03:47.417Z,55.90
2019-02-24T20:06:20.139Z,55.00
2019-02-24T20:08:52.494Z,55.00
2019-02-24T20:11:25.344Z,52.90
2019-02-24T20:13:58.249Z,51.70
2019-02-24T20:16:30.663Z,51.70
2019-02-24T20:19:03.444Z,52.40
2019-02-24T20:21:47.150Z,51.60
2019-02-24T20:24:21.126Z,51.90
2019-02-24T20:26:53.535Z,52.30
2019-02-24T20:29:26.072Z,52.80
2019-02-24T20:31:58.684Z,53.20
2019-02-24T20:34:31.638Z,53.40
2019-02-24T20:37:04.237Z,53.10
2019-02-24T20:39:36.951Z,53.30
2019-02-24T20:42:09.332Z,53.70
2019-02-24T20:44:41.942Z,53.50
2019-02-24T20:47:14.489Z,53.20
2019-02-24T20:49:46.983Z,52.40
2019-02-24T20:52:19.748Z,52.70
2019-02-24T20:54:52.400Z,52.80
2019-02-24T20:57:25.011Z,52.00
2019-02-24T20:59:57.951Z,51.60
2019-02-24T21:02:30.263Z,51.80
2019-02-24T21:05:02.704Z,50.90
2019-02-24T21:07:35.290Z,50.40
2019-02-24T21:10:08.614Z,49.60
2019-02-24T21:12:43.346Z,49.50
2019-02-24T21:15:15.979Z,50.30
2019-02-24T21:17:48.525Z,50.00
2019-02-24T21:20:23.968Z,50.80
2019-02-24T21:22:56.512Z,50.60
2019-02-24T21:25:29.310Z,51.30
2019-02-24T21:28:01.814Z,51.70
2019-02-24T21:30:34.241Z,51.60
2019-02-24T21:33:06.975Z,52.20
2019-02-24T21:35:39.522Z,52.20
2019-02-24T21:38:12.056Z,52.20
2019-02-24T21:40:45.070Z,52.80
2019-02-24T21:43:17.428Z,53.00
2019-02-24T21:45:50.947Z,53.20
2019-02-24T21:48:23.641Z,53.40
2019-02-24T21:50:56.050Z,53.30
2019-02-24T21:53:28.778Z,53.00
2019-02-24T21:56:01.348Z,53.00
2019-02-24T21:58:33.977Z,56.90
2019-02-24T22:01:26.999Z,57.00
2019-02-24T22:03:59.579Z,55.00
2019-02-24T22:06:32.063Z,53.30
2019-02-24T22:09:06.514Z,51.80
2019-02-24T22:11:39.129Z,51.40
2019-02-24T22:14:11.701Z,50.90
2019-02-24T22:16:44.281Z,50.90
2019-02-24T22:19:16.557Z,50.60
2019-02-24T22:21:48.958Z,50.90
2019-02-24T22:24:21.342Z,51.00
2019-02-24T22:26:54.077Z,51.50
2019-02-24T22:29:26.652Z,50.90
2019-02-24T22:31:59.156Z,50.40
2019-02-24T22:34:31.712Z,49.90
2019-02-24T22:37:04.299Z,50.10
2019-02-24T22:39:36.799Z,51.00
2019-02-24T22:42:09.352Z,50.10
2019-02-24T22:44:42.017Z,50.30
2019-02-24T22:47:14.377Z,50.00
2019-02-24T22:49:46.834Z,50.10
2019-02-24T22:52:19.279Z,50.00
2019-02-24T22:54:51.767Z,50.00
2019-02-24T22:57:24.124Z,50.60
2019-02-24T22:59:56.534Z,50.50
2019-02-24T23:02:29.469Z,50.50
2019-02-24T23:05:01.905Z,50.30
2019-02-24T23:07:34.655Z,50.80
2019-02-24T23:10:07.475Z,51.00
2019-02-24T23:12:39.888Z,51.10
2019-02-24T23:15:12.629Z,51.00
2019-02-24T23:17:45.074Z,50.50
2019-02-24T23:20:17.639Z,50.90
2019-02-24T23:22:50.037Z,51.10
2019-02-24T23:25:22.531Z,51.30
2019-02-24T23:27:55.110Z,51.70
2019-02-24T23:30:27.416Z,51.50
2019-02-24T23:32:59.859Z,50.90
2019-02-24T23:35:33.188Z,51.00
2019-02-24T23:38:05.674Z,50.50
2019-02-24T23:40:38.163Z,50.00
2019-02-24T23:43:10.950Z,49.90
2019-02-24T23:45:43.377Z,50.00
2019-02-24T23:48:16.279Z,50.20
2019-02-24T23:50:48.671Z,50.30
2019-02-24T23:53:21.135Z,50.50
2019-02-24T23:55:53.555Z,49.80
2019-02-24T23:58:26.100Z,49.40
